createdAt,value
2018-07-17T00:00:50.691Z,24.70
2018-07-17T00:03:19.981Z,24.63
2018-07-17T00:05:49.298Z,24.53
2018-07-17T00:08:18.550Z,24.53
2018-07-17T00:10:47.898Z,24.48
2018-07-17T00:13:17.068Z,24.44
2018-07-17T00:15:46.379Z,24.37
2018-07-17T00:18:15.683Z,24.32
2018-07-17T00:20:45.301Z,24.28
2018-07-17T00:23:14.687Z,24.22
2018-07-17T00:25:44.135Z,24.12
2018-07-17T00:28:13.369Z,24.08
2018-07-17T00:30:42.730Z,24.04
2018-07-17T00:33:12.117Z,23.98
2018-07-17T00:35:41.417Z,23.93
2018-07-17T00:38:10.717Z,23.91
2018-07-17T00:40:40.045Z,23.90
2018-07-17T00:43:09.650Z,23.82
2018-07-17T00:45:39.119Z,23.82
2018-07-17T00:48:08.490Z,23.69
2018-07-17T00:50:37.734Z,23.65
2018-07-17T00:53:07.036Z,23.65
2018-07-17T00:55:36.443Z,23.64
2018-07-17T00:58:05.739Z,23.61
2018-07-17T01:00:40.362Z,23.54
2018-07-17T01:03:14.789Z,23.54
2018-07-17T01:05:48.982Z,23.52
2018-07-17T01:08:23.190Z,23.45
2018-07-17T01:10:57.392Z,23.31
2018-07-17T01:13:31.599Z,23.20
2018-07-17T01:16:01.049Z,23.10
2018-07-17T01:18:30.330Z,22.94
2018-07-17T01:20:59.662Z,22.67
2018-07-17T01:23:29.030Z,22.69
2018-07-17T01:25:58.282Z,22.74
2018-07-17T01:28:27.528Z,22.54
2018-07-17T01:30:56.840Z,22.29
2018-07-17T01:33:26.213Z,22.17
2018-07-17T01:35:55.440Z,22.09
2018-07-17T01:38:24.831Z,22.22
2018-07-17T01:40:54.049Z,22.38
2018-07-17T01:43:23.421Z,22.47
2018-07-17T01:45:52.861Z,22.52
2018-07-17T01:48:22.262Z,22.52
2018-07-17T01:50:51.793Z,22.48
2018-07-17T01:53:21.217Z,22.45
2018-07-17T01:55:50.475Z,22.38
2018-07-17T01:58:20.015Z,22.11
2018-07-17T02:00:49.286Z,21.82
2018-07-17T02:03:18.569Z,21.84
2018-07-17T02:05:47.991Z,21.93
2018-07-17T02:08:17.381Z,22.03
2018-07-17T02:10:46.698Z,22.09
2018-07-17T02:13:16.054Z,22.11
2018-07-17T02:15:45.207Z,22.09
2018-07-17T02:18:14.492Z,22.11
2018-07-17T02:20:43.808Z,22.10
2018-07-17T02:23:13.079Z,22.09
2018-07-17T02:25:42.410Z,22.06
2018-07-17T02:28:11.670Z,22.05
2018-07-17T02:30:40.884Z,22.00
2018-07-17T02:33:10.147Z,21.97
2018-07-17T02:35:39.805Z,21.91
2018-07-17T02:38:09.507Z,21.87
2018-07-17T02:40:39.016Z,21.50
2018-07-17T02:43:08.519Z,21.27
2018-07-17T02:45:37.802Z,21.28
2018-07-17T02:48:07.112Z,21.39
2018-07-17T02:50:36.419Z,21.49
2018-07-17T02:53:05.727Z,21.56
2018-07-17T02:55:35.020Z,21.59
2018-07-17T02:58:04.416Z,21.56
2018-07-17T03:00:34.030Z,21.16
2018-07-17T03:03:03.310Z,21.26
2018-07-17T03:05:32.617Z,21.30
2018-07-17T03:08:03.029Z,21.17
2018-07-17T03:10:32.300Z,20.79
2018-07-17T03:13:01.654Z,20.60
2018-07-17T03:15:30.961Z,20.41
2018-07-17T03:18:00.226Z,20.40
2018-07-17T03:20:29.432Z,20.27
2018-07-17T03:22:58.670Z,19.63
2018-07-17T03:25:27.828Z,19.42
2018-07-17T03:27:57.183Z,19.32
2018-07-17T03:30:26.533Z,19.56
2018-07-17T03:32:55.731Z,19.41
2018-07-17T03:35:24.989Z,19.37
2018-07-17T03:37:54.240Z,19.51
2018-07-17T03:40:23.397Z,19.44
2018-07-17T03:42:52.754Z,19.54
2018-07-17T03:45:22.026Z,19.59
2018-07-17T03:47:51.494Z,19.77
2018-07-17T03:50:20.612Z,19.07
2018-07-17T03:52:49.874Z,19.36
2018-07-17T03:55:19.136Z,19.65
2018-07-17T03:57:48.559Z,18.60
2018-07-17T04:00:17.840Z,19.21
2018-07-17T04:02:47.297Z,19.56
2018-07-17T04:05:16.634Z,19.79
2018-07-17T04:07:45.885Z,19.95
2018-07-17T04:10:15.142Z,20.11
2018-07-17T04:12:44.365Z,20.21
2018-07-17T04:15:13.607Z,20.31
2018-07-17T04:17:42.969Z,20.44
2018-07-17T04:20:12.212Z,20.63
2018-07-17T04:22:41.438Z,20.77
2018-07-17T04:25:10.604Z,20.89
2018-07-17T04:27:39.946Z,21.04
2018-07-17T04:30:09.129Z,21.18
2018-07-17T04:32:38.458Z,21.25
2018-07-17T04:35:07.706Z,21.47
2018-07-17T04:37:36.890Z,21.61
2018-07-17T04:40:06.511Z,21.62
2018-07-17T04:42:35.750Z,21.65
2018-07-17T04:45:04.847Z,21.71
2018-07-17T04:47:34.155Z,21.68
2018-07-17T04:50:03.422Z,21.65
2018-07-17T04:52:32.696Z,21.79
2018-07-17T04:55:01.810Z,21.45
2018-07-17T04:57:31.097Z,21.59
2018-07-17T05:00:00.321Z,21.75
2018-07-17T05:02:29.758Z,22.13
2018-07-17T05:04:59.041Z,22.50
2018-07-17T05:07:28.279Z,23.10
2018-07-17T05:09:57.544Z,22.43
2018-07-17T05:12:27.056Z,22.09
2018-07-17T05:14:56.328Z,22.19
2018-07-17T05:17:25.688Z,21.87
2018-07-17T05:19:55.616Z,21.29
2018-07-17T05:22:25.396Z,20.95
2018-07-17T05:24:54.610Z,21.43
2018-07-17T05:27:23.959Z,21.82
2018-07-17T05:29:53.206Z,22.08
2018-07-17T05:32:22.650Z,23.21
2018-07-17T05:34:51.990Z,23.63
2018-07-17T05:37:21.315Z,22.72
2018-07-17T05:39:50.598Z,24.16
2018-07-17T05:42:19.888Z,24.69
2018-07-17T05:44:49.165Z,25.15
2018-07-17T05:47:18.505Z,25.29
2018-07-17T05:49:47.858Z,26.85
2018-07-17T05:52:17.078Z,26.75
2018-07-17T05:54:46.446Z,26.25
2018-07-17T05:57:15.686Z,25.76
2018-07-17T05:59:45.106Z,25.30
2018-07-17T06:02:14.434Z,25.62
2018-07-17T06:04:43.666Z,25.71
2018-07-17T06:07:12.911Z,26.22
2018-07-17T06:09:42.187Z,27.56
2018-07-17T06:12:11.526Z,26.44
2018-07-17T06:14:40.785Z,27.41
2018-07-17T06:17:10.040Z,26.79
2018-07-17T06:19:39.303Z,25.95
2018-07-17T06:22:08.706Z,25.36
2018-07-17T06:24:37.907Z,24.59
2018-07-17T06:27:07.340Z,23.30
2018-07-17T06:29:36.581Z,23.89
2018-07-17T06:32:05.859Z,23.09
2018-07-17T06:34:35.062Z,24.39
2018-07-17T06:37:04.298Z,25.55
2018-07-17T06:39:33.562Z,25.85
2018-07-17T06:42:02.820Z,26.23
2018-07-17T06:44:32.193Z,26.43
2018-07-17T06:47:01.603Z,26.73
2018-07-17T06:49:30.844Z,27.47
2018-07-17T06:52:00.070Z,28.58
2018-07-17T06:54:29.463Z,28.72
2018-07-17T06:56:58.698Z,29.11
2018-07-17T06:59:27.913Z,29.39
2018-07-17T07:01:57.290Z,29.04
2018-07-17T07:04:26.642Z,28.31
2018-07-17T07:06:55.891Z,28.07
2018-07-17T07:09:26.729Z,28.14
2018-07-17T07:11:56.006Z,28.58
2018-07-17T07:14:25.352Z,29.09
2018-07-17T07:16:54.603Z,28.72
2018-07-17T07:19:23.858Z,28.56
2018-07-17T07:21:53.048Z,28.21
2018-07-17T07:24:22.337Z,28.71
2018-07-17T07:26:51.543Z,29.21
2018-07-17T07:29:20.770Z,29.46
2018-07-17T07:31:50.037Z,28.94
2018-07-17T07:34:19.647Z,29.23
2018-07-17T07:36:49.355Z,29.15
2018-07-17T07:39:18.881Z,29.31
2018-07-17T07:41:48.340Z,29.15
2018-07-17T07:44:17.721Z,29.30
2018-07-17T07:46:47.141Z,29.53
2018-07-17T07:49:17.112Z,30.36
2018-07-17T07:51:46.358Z,30.67
2018-07-17T07:54:15.602Z,29.69
2018-07-17T07:56:45.047Z,30.56
2018-07-17T07:59:14.304Z,30.60
2018-07-17T08:01:43.482Z,29.91
2018-07-17T08:04:12.898Z,30.05
2018-07-17T08:06:42.472Z,30.14
2018-07-17T08:09:11.750Z,30.57
2018-07-17T08:11:40.993Z,30.61
2018-07-17T08:14:10.298Z,30.72
2018-07-17T08:16:39.574Z,31.29
2018-07-17T08:19:09.007Z,31.74
2018-07-17T08:21:38.191Z,31.66
2018-07-17T08:24:08.055Z,32.28
2018-07-17T08:26:40.277Z,32.63
2018-07-17T08:29:09.601Z,32.30
2018-07-17T08:31:38.808Z,31.97
2018-07-17T08:34:07.979Z,30.65
2018-07-17T08:36:37.289Z,30.14
2018-07-17T08:39:08.286Z,30.97
2018-07-17T08:41:37.528Z,31.06
2018-07-17T08:44:06.746Z,31.74
2018-07-17T08:46:36.242Z,31.81
2018-07-17T08:49:05.595Z,32.28
2018-07-17T08:51:34.944Z,32.89
2018-07-17T08:54:04.398Z,33.53
2018-07-17T08:56:33.615Z,34.05
2018-07-17T08:59:02.842Z,34.65
2018-07-17T09:01:32.148Z,34.86
2018-07-17T09:04:01.449Z,35.44
2018-07-17T09:06:30.595Z,34.80
2018-07-17T09:08:59.869Z,35.27
2018-07-17T09:11:29.131Z,35.29
2018-07-17T09:13:58.316Z,35.21
2018-07-17T09:16:27.575Z,35.45
2018-07-17T09:18:56.919Z,36.16
2018-07-17T09:21:26.259Z,35.32
2018-07-17T09:23:55.654Z,36.31
2018-07-17T09:26:24.947Z,36.90
2018-07-17T09:28:54.235Z,36.35
2018-07-17T09:31:23.501Z,35.07
2018-07-17T09:33:52.944Z,35.36
2018-07-17T09:36:22.557Z,34.98
2018-07-17T09:38:52.230Z,35.24
2018-07-17T09:41:22.042Z,33.92
2018-07-17T09:43:51.279Z,34.75
2018-07-17T09:46:20.546Z,34.12
2018-07-17T09:48:49.858Z,34.25
2018-07-17T09:51:19.161Z,34.67
2018-07-17T09:53:48.470Z,34.70
2018-07-17T09:56:17.755Z,34.68
2018-07-17T09:58:47.110Z,35.50
2018-07-17T10:01:21.906Z,35.27
2018-07-17T10:03:51.241Z,34.95
2018-07-17T10:06:20.508Z,34.84
2018-07-17T10:08:49.820Z,35.05
2018-07-17T10:11:19.050Z,35.32
2018-07-17T10:13:48.422Z,35.21
2018-07-17T10:16:17.734Z,34.95
2018-07-17T10:18:47.024Z,34.01
2018-07-17T10:21:16.225Z,32.26
2018-07-17T10:23:45.528Z,31.99
2018-07-17T10:26:14.805Z,33.02
2018-07-17T10:28:44.160Z,33.77
2018-07-17T10:31:13.482Z,34.72
2018-07-17T10:33:42.723Z,35.86
2018-07-17T10:36:12.015Z,37.93
2018-07-17T10:38:41.353Z,38.78
2018-07-17T10:41:10.754Z,38.82
2018-07-17T10:43:40.105Z,38.99
2018-07-17T10:46:09.445Z,38.08
2018-07-17T10:48:38.700Z,37.87
2018-07-17T10:51:08.031Z,37.48
2018-07-17T10:53:37.310Z,37.28
2018-07-17T10:56:06.594Z,37.33
2018-07-17T10:58:36.019Z,37.23
2018-07-17T11:01:06.232Z,37.96
2018-07-17T11:03:35.523Z,37.88
2018-07-17T11:06:04.969Z,38.24
2018-07-17T11:08:34.273Z,38.51
2018-07-17T11:11:03.751Z,38.61
2018-07-17T11:13:33.058Z,38.68
2018-07-17T11:16:02.297Z,39.03
2018-07-17T11:18:31.447Z,38.72
2018-07-17T11:21:00.774Z,38.49
2018-07-17T11:23:30.026Z,38.28
2018-07-17T11:25:59.171Z,37.57
2018-07-17T11:28:28.394Z,37.26
2018-07-17T11:30:57.563Z,37.24
2018-07-17T11:33:26.885Z,37.61
2018-07-17T11:35:56.173Z,37.78
2018-07-17T11:38:25.314Z,37.96
2018-07-17T11:40:54.578Z,38.36
2018-07-17T11:43:23.845Z,38.56
2018-07-17T11:45:53.158Z,39.24
2018-07-17T11:48:22.433Z,39.70
2018-07-17T11:50:51.659Z,39.36
2018-07-17T11:53:20.978Z,37.88
2018-07-17T11:55:50.345Z,37.66
2018-07-17T11:58:19.650Z,38.37
2018-07-17T12:00:49.106Z,38.48
2018-07-17T12:03:18.436Z,38.29
2018-07-17T12:05:47.986Z,38.63
2018-07-17T12:08:17.234Z,39.28
2018-07-17T12:10:46.474Z,39.79
2018-07-17T12:13:15.734Z,39.41
2018-07-17T12:15:45.092Z,38.50
2018-07-17T12:18:14.361Z,38.99
2018-07-17T12:20:43.687Z,39.64
2018-07-17T12:23:13.046Z,39.70
2018-07-17T12:25:42.367Z,39.81
2018-07-17T12:28:11.749Z,38.22
2018-07-17T12:30:41.639Z,38.57
2018-07-17T12:33:11.293Z,38.75
2018-07-17T12:35:40.703Z,39.17
2018-07-17T12:38:10.086Z,38.89
2018-07-17T12:40:39.397Z,38.40
2018-07-17T12:43:08.666Z,38.66
2018-07-17T12:45:38.024Z,37.96
2018-07-17T12:48:07.431Z,38.32
2018-07-17T12:50:36.710Z,38.65
2018-07-17T12:53:05.945Z,38.76
2018-07-17T12:55:35.224Z,39.63
2018-07-17T12:58:04.462Z,39.85
2018-07-17T13:00:33.779Z,40.00
2018-07-17T13:03:02.879Z,39.04
2018-07-17T13:05:32.486Z,39.25
2018-07-17T13:08:01.794Z,39.21
2018-07-17T13:10:31.246Z,39.45
2018-07-17T13:13:00.472Z,38.84
2018-07-17T13:15:29.754Z,38.10
2018-07-17T13:17:59.100Z,36.29
2018-07-17T13:20:28.410Z,35.96
2018-07-17T13:22:57.756Z,36.09
2018-07-17T13:25:27.024Z,35.76
2018-07-17T13:27:56.932Z,35.64
2018-07-17T13:30:26.822Z,36.06
2018-07-17T13:32:56.063Z,36.71
2018-07-17T13:35:25.335Z,36.64
2018-07-17T13:37:54.617Z,37.14
2018-07-17T13:40:23.851Z,37.08
2018-07-17T13:42:53.111Z,37.07
2018-07-17T13:45:22.358Z,36.76
2018-07-17T13:47:51.722Z,36.89
2018-07-17T13:50:21.126Z,36.50
2018-07-17T13:52:50.333Z,36.77
2018-07-17T13:55:19.785Z,36.75
2018-07-17T13:57:49.014Z,37.10
2018-07-17T14:00:18.375Z,37.26
2018-07-17T14:02:47.626Z,36.80
2018-07-17T14:05:16.984Z,36.33
2018-07-17T14:07:46.215Z,35.22
2018-07-17T14:10:15.514Z,35.26
2018-07-17T14:12:44.814Z,34.58
2018-07-17T14:15:14.015Z,34.76
2018-07-17T14:17:43.361Z,34.98
2018-07-17T14:20:12.638Z,34.29
2018-07-17T14:22:42.040Z,34.35
2018-07-17T14:25:11.314Z,34.44
2018-07-17T14:27:40.641Z,34.12
2018-07-17T14:30:09.920Z,34.81
2018-07-17T14:32:39.234Z,35.09
2018-07-17T14:35:08.509Z,35.70
2018-07-17T14:37:38.272Z,36.38
2018-07-17T14:40:08.361Z,36.15
2018-07-17T14:42:37.660Z,35.17
2018-07-17T14:45:07.186Z,35.16
2018-07-17T14:47:36.511Z,35.15
2018-07-17T14:50:05.865Z,35.00
2018-07-17T14:52:35.205Z,35.02
2018-07-17T14:55:04.542Z,35.44
2018-07-17T14:57:33.674Z,35.78
2018-07-17T15:00:02.890Z,35.28
2018-07-17T15:02:32.191Z,34.30
2018-07-17T15:05:01.374Z,33.07
2018-07-17T15:07:30.805Z,33.38
2018-07-17T15:10:00.107Z,33.90
2018-07-17T15:12:29.783Z,34.17
2018-07-17T15:14:59.090Z,34.07
2018-07-17T15:17:28.522Z,33.65
2018-07-17T15:19:57.863Z,33.56
2018-07-17T15:22:27.684Z,33.35
2018-07-17T15:24:56.882Z,33.14
2018-07-17T15:27:26.113Z,33.15
2018-07-17T15:29:55.369Z,33.67
2018-07-17T15:32:24.864Z,33.56
2018-07-17T15:34:53.984Z,33.12
2018-07-17T15:37:23.221Z,33.65
2018-07-17T15:39:52.396Z,33.38
2018-07-17T15:42:21.725Z,33.59
2018-07-17T15:44:50.967Z,33.75
2018-07-17T15:47:20.680Z,34.09
2018-07-17T15:49:50.104Z,33.60
2018-07-17T15:52:19.451Z,33.36
2018-07-17T15:54:48.745Z,33.58
2018-07-17T15:57:18.130Z,33.60
2018-07-17T15:59:47.462Z,34.35
2018-07-17T16:02:16.845Z,33.66
2018-07-17T16:04:46.254Z,33.71
2018-07-17T16:07:16.186Z,34.11
2018-07-17T16:09:45.403Z,34.21
2018-07-17T16:12:14.677Z,34.38
2018-07-17T16:14:44.141Z,34.48
2018-07-17T16:17:13.366Z,34.98
2018-07-17T16:19:42.763Z,34.81
2018-07-17T16:22:12.164Z,35.33
2018-07-17T16:24:41.658Z,35.30
2018-07-17T16:27:11.271Z,34.97
2018-07-17T16:29:40.950Z,34.38
2018-07-17T16:32:10.545Z,34.16
2018-07-17T16:34:39.895Z,33.77
2018-07-17T16:37:09.209Z,34.19
2018-07-17T16:39:38.503Z,34.24
2018-07-17T16:42:07.903Z,33.99
2018-07-17T16:44:37.207Z,34.06
2018-07-17T16:47:06.711Z,33.62
2018-07-17T16:49:36.021Z,33.91
2018-07-17T16:52:05.303Z,33.68
2018-07-17T16:54:34.802Z,33.59
2018-07-17T16:57:04.126Z,33.68
2018-07-17T16:59:33.418Z,33.67
2018-07-17T17:02:02.726Z,33.14
2018-07-17T17:04:32.021Z,33.57
2018-07-17T17:07:01.441Z,33.65
2018-07-17T17:09:30.681Z,33.80
2018-07-17T17:11:59.902Z,33.79
2018-07-17T17:14:29.157Z,33.76
2018-07-17T17:16:58.437Z,33.72
2018-07-17T17:19:27.672Z,33.48
2018-07-17T17:21:56.941Z,33.59
2018-07-17T17:24:26.405Z,33.70
2018-07-17T17:26:55.542Z,33.55
2018-07-17T17:29:24.817Z,33.38
2018-07-17T17:31:54.244Z,33.27
2018-07-17T17:34:23.570Z,32.94
2018-07-17T17:36:52.820Z,33.05
2018-07-17T17:39:22.215Z,33.13
2018-07-17T17:41:51.410Z,33.15
2018-07-17T17:44:20.630Z,33.01
2018-07-17T17:46:49.858Z,33.02
2018-07-17T17:49:19.318Z,32.96
2018-07-17T17:51:48.657Z,32.84
2018-07-17T17:54:17.928Z,32.77
2018-07-17T17:56:47.219Z,32.76
2018-07-17T17:59:16.734Z,32.86
2018-07-17T18:01:46.124Z,32.86
2018-07-17T18:04:15.443Z,32.76
2018-07-17T18:06:44.636Z,32.70
2018-07-17T18:09:13.925Z,32.72
2018-07-17T18:11:43.202Z,32.72
2018-07-17T18:14:12.407Z,32.69
2018-07-17T18:16:41.764Z,32.66
2018-07-17T18:19:11.063Z,32.62
2018-07-17T18:21:40.316Z,32.60
2018-07-17T18:24:09.630Z,32.64
2018-07-17T18:26:39.094Z,32.63
2018-07-17T18:29:08.512Z,32.51
2018-07-17T18:31:37.845Z,32.53
2018-07-17T18:34:07.500Z,32.47
2018-07-17T18:36:36.729Z,32.39
2018-07-17T18:39:07.933Z,32.30
2018-07-17T18:41:37.378Z,32.28
2018-07-17T18:44:06.991Z,32.25
2018-07-17T18:46:36.304Z,32.16
2018-07-17T18:49:05.630Z,31.97
2018-07-17T18:51:34.858Z,31.82
2018-07-17T18:54:04.131Z,31.57
2018-07-17T18:56:33.381Z,31.57
2018-07-17T18:59:02.714Z,31.47
2018-07-17T19:01:32.925Z,30.94
2018-07-17T19:04:02.291Z,30.61
2018-07-17T19:06:31.493Z,29.96
2018-07-17T19:09:00.757Z,29.34
2018-07-17T19:11:30.074Z,29.72
2018-07-17T19:13:59.433Z,29.44
2018-07-17T19:16:29.980Z,29.26
2018-07-17T19:18:59.280Z,29.39
2018-07-17T19:21:28.558Z,29.03
2018-07-17T19:23:57.794Z,29.10
2018-07-17T19:26:27.034Z,28.66
2018-07-17T19:28:56.270Z,28.79
2018-07-17T19:31:25.507Z,28.51
2018-07-17T19:33:54.900Z,28.60
2018-07-17T19:36:24.259Z,28.36
2018-07-17T19:38:53.660Z,28.03
2018-07-17T19:41:22.974Z,27.83
2018-07-17T19:43:52.431Z,27.73
2018-07-17T19:46:21.611Z,27.65
2018-07-17T19:48:50.968Z,27.52
2018-07-17T19:51:20.278Z,27.53
2018-07-17T19:53:49.466Z,27.46
2018-07-17T19:56:18.776Z,27.20
2018-07-17T19:58:48.085Z,27.00
2018-07-17T20:01:17.334Z,27.04
2018-07-17T20:03:46.582Z,26.94
2018-07-17T20:06:15.942Z,26.90
2018-07-17T20:08:45.284Z,26.90
2018-07-17T20:11:14.537Z,26.73
2018-07-17T20:13:43.790Z,26.83
2018-07-17T20:16:13.061Z,26.83
2018-07-17T20:18:42.411Z,26.69
2018-07-17T20:21:11.833Z,26.55
2018-07-17T20:23:41.185Z,26.53
2018-07-17T20:26:10.488Z,26.51
2018-07-17T20:28:39.924Z,26.39
2018-07-17T20:31:09.181Z,26.21
2018-07-17T20:33:38.641Z,26.22
2018-07-17T20:36:07.893Z,26.18
2018-07-17T20:38:37.397Z,26.47
2018-07-17T20:41:06.778Z,26.49
2018-07-17T20:43:36.016Z,26.37
2018-07-17T20:46:05.335Z,26.38
2018-07-17T20:48:34.618Z,26.42
2018-07-17T20:51:03.850Z,26.29
2018-07-17T20:53:33.187Z,26.07
2018-07-17T20:56:02.479Z,26.20
2018-07-17T20:58:31.875Z,26.06
2018-07-17T21:01:01.175Z,25.94
2018-07-17T21:03:30.492Z,26.20
2018-07-17T21:05:59.788Z,26.15
2018-07-17T21:08:29.102Z,26.01
2018-07-17T21:10:58.358Z,25.97
2018-07-17T21:13:31.142Z,25.97
2018-07-17T21:16:00.434Z,26.00
2018-07-17T21:18:29.799Z,25.98
2018-07-17T21:20:59.093Z,25.71
2018-07-17T21:23:28.492Z,25.79
2018-07-17T21:25:58.667Z,25.85
2018-07-17T21:28:28.121Z,25.88
2018-07-17T21:30:57.877Z,25.93
2018-07-17T21:33:27.086Z,25.79
2018-07-17T21:35:56.513Z,25.75
2018-07-17T21:38:25.796Z,25.47
2018-07-17T21:40:55.070Z,25.63
2018-07-17T21:43:24.274Z,25.73
2018-07-17T21:45:53.550Z,25.56
2018-07-17T21:48:22.801Z,25.60
2018-07-17T21:50:52.055Z,25.62
2018-07-17T21:53:21.420Z,25.69
2018-07-17T21:55:50.645Z,25.62
2018-07-17T21:58:19.905Z,25.83
2018-07-17T22:00:49.152Z,25.80
2018-07-17T22:03:18.490Z,25.59
2018-07-17T22:05:47.639Z,25.52
2018-07-17T22:08:16.906Z,25.44
2018-07-17T22:10:46.335Z,25.51
2018-07-17T22:13:16.393Z,25.29
2018-07-17T22:15:46.039Z,25.55
2018-07-17T22:18:15.838Z,25.38
2018-07-17T22:20:45.199Z,25.38
2018-07-17T22:23:14.570Z,25.30
2018-07-17T22:25:43.863Z,25.27
2018-07-17T22:28:13.062Z,25.30
2018-07-17T22:30:42.471Z,25.40
2018-07-17T22:33:11.746Z,25.17
2018-07-17T22:35:40.974Z,25.21
2018-07-17T22:38:10.249Z,24.97
2018-07-17T22:40:40.091Z,25.26
2018-07-17T22:43:09.363Z,25.26
2018-07-17T22:45:38.651Z,25.29
2018-07-17T22:48:07.793Z,25.18
2018-07-17T22:50:37.217Z,25.09
2018-07-17T22:53:06.463Z,25.18
2018-07-17T22:55:35.705Z,25.21
2018-07-17T22:58:04.934Z,25.12
2018-07-17T23:00:34.211Z,25.20
2018-07-17T23:03:03.470Z,25.12
2018-07-17T23:05:32.782Z,25.00
2018-07-17T23:08:02.030Z,24.87
2018-07-17T23:10:31.270Z,24.89
2018-07-17T23:13:00.418Z,24.93
2018-07-17T23:15:29.694Z,24.82
2018-07-17T23:17:58.957Z,24.63
2018-07-17T23:20:28.163Z,24.51
2018-07-17T23:22:58.420Z,24.47
2018-07-17T23:25:28.900Z,24.44
2018-07-17T23:27:58.654Z,24.53
2018-07-17T23:30:27.961Z,24.38
2018-07-17T23:32:57.247Z,24.46
2018-07-17T23:35:26.811Z,24.26
2018-07-17T23:37:56.027Z,24.31
2018-07-17T23:40:25.476Z,24.33
2018-07-17T23:42:54.885Z,24.31
2018-07-17T23:45:24.176Z,24.29
2018-07-17T23:47:53.736Z,24.22
2018-07-17T23:50:23.460Z,24.37
2018-07-17T23:52:52.854Z,24.17
2018-07-17T23:55:22.180Z,24.03
2018-07-17T23:57:51.598Z,23.87
